createdAt,value
2023-03-23T15:59:06.253Z,1.50
2023-03-23T16:01:33.040Z,2.30
2023-03-23T16:04:07.607Z,1.98
2023-03-23T16:06:35.663Z,3.15
2023-03-23T16:09:03.588Z,1.40
2023-03-23T16:11:31.523Z,1.80
2023-03-23T16:13:58.580Z,3.42
2023-03-23T16:16:27.766Z,2.60
2023-03-23T16:18:54.422Z,2.58
2023-03-23T16:21:21.180Z,1.77
2023-03-23T16:23:47.666Z,3.90
2023-03-23T16:26:15.137Z,3.70
2023-03-23T16:28:42.181Z,2.58
2023-03-23T16:31:09.044Z,1.75
2023-03-23T16:33:35.691Z,1.98
2023-03-23T16:36:02.873Z,1.67
2023-03-23T16:38:29.426Z,2.78
2023-03-23T16:40:55.918Z,2.05
2023-03-23T16:43:22.643Z,1.40
2023-03-23T16:45:49.356Z,4.00
2023-03-23T16:48:16.962Z,1.45
2023-03-23T16:50:44.354Z,3.92
2023-03-23T16:53:11.154Z,2.00
2023-03-23T16:55:38.452Z,1.98
2023-03-23T16:58:16.273Z,2.50
2023-03-23T17:00:45.579Z,1.33
2023-03-23T17:03:13.323Z,1.55
2023-03-23T17:05:41.551Z,2.47
2023-03-23T17:08:08.190Z,2.40
2023-03-23T17:10:34.773Z,2.58
2023-03-23T17:13:01.869Z,4.07
2023-03-23T17:15:28.595Z,3.03
2023-03-23T17:17:55.383Z,2.17
2023-03-23T17:20:22.438Z,1.98
2023-03-23T17:22:49.411Z,1.50
2023-03-23T17:25:16.098Z,2.60
2023-03-23T17:27:42.897Z,1.45
2023-03-23T17:30:11.252Z,1.58
2023-03-23T17:32:38.298Z,3.80
2023-03-23T17:35:06.588Z,2.28
2023-03-23T17:37:33.345Z,1.58
2023-03-23T17:40:00.946Z,2.38
2023-03-23T17:42:27.637Z,2.22
2023-03-23T17:44:54.107Z,1.52
2023-03-23T17:47:20.857Z,2.20
2023-03-23T17:49:47.911Z,2.30
2023-03-23T17:52:14.708Z,4.10
2023-03-23T17:54:41.255Z,2.45
2023-03-23T17:57:08.292Z,2.42
2023-03-23T17:59:34.888Z,3.85
2023-03-23T18:02:01.436Z,4.82
2023-03-23T18:04:27.988Z,4.00
2023-03-23T18:06:56.609Z,4.43
2023-03-23T18:09:24.211Z,6.03
2023-03-23T18:11:51.284Z,4.13
2023-03-23T18:14:18.264Z,2.17
2023-03-23T18:16:44.993Z,6.93
2023-03-23T18:19:11.952Z,3.67
2023-03-23T18:21:38.989Z,2.38
2023-03-23T18:24:05.710Z,4.22
2023-03-23T18:26:32.243Z,3.28
2023-03-23T18:28:58.680Z,4.20
2023-03-23T18:31:25.426Z,3.20
2023-03-23T18:33:54.429Z,3.78
2023-03-23T18:36:24.299Z,4.22
2023-03-23T18:38:51.162Z,2.10
2023-03-23T18:41:18.362Z,2.38
2023-03-23T18:43:44.891Z,3.77
2023-03-23T18:46:11.397Z,2.20
2023-03-23T18:48:37.906Z,3.05
2023-03-23T18:51:04.592Z,3.08
2023-03-23T18:53:31.309Z,3.30
2023-03-23T18:56:09.717Z,2.85
2023-03-23T18:58:36.603Z,2.75
2023-03-23T19:01:07.033Z,3.78
2023-03-23T19:03:35.301Z,2.38
2023-03-23T19:06:02.213Z,2.80
2023-03-23T19:08:29.442Z,3.65
2023-03-23T19:10:59.888Z,3.70
2023-03-23T19:13:28.443Z,4.83
2023-03-23T19:15:55.183Z,4.90
2023-03-23T19:18:22.124Z,4.35
2023-03-23T19:23:22.207Z,5.75
2023-03-23T19:25:48.950Z,4.37
2023-03-23T19:30:47.422Z,6.55
2023-03-23T19:33:15.204Z,4.60
2023-03-23T19:35:42.030Z,5.72
2023-03-23T19:38:09.145Z,3.50
2023-03-23T19:40:41.474Z,6.50
2023-03-23T19:43:09.382Z,8.38
2023-03-23T19:45:36.941Z,5.63
2023-03-23T19:48:03.925Z,5.70
2023-03-23T19:50:31.760Z,5.47
2023-03-23T19:53:00.163Z,5.97
2023-03-23T19:55:27.314Z,7.55
2023-03-23T19:57:54.076Z,8.65
2023-03-23T20:00:20.823Z,10.48
2023-03-23T20:02:49.923Z,8.23
2023-03-23T20:05:16.606Z,6.07
2023-03-23T20:07:46.441Z,8.73
2023-03-23T20:10:16.391Z,11.75
2023-03-23T20:12:42.877Z,17.33
2023-03-23T20:15:09.534Z,10.02
2023-03-23T20:17:36.371Z,10.98
2023-03-23T20:20:06.351Z,7.95
2023-03-23T20:22:33.804Z,6.47
2023-03-23T20:25:00.759Z,6.47
2023-03-23T20:27:27.688Z,9.15
2023-03-23T20:29:57.327Z,8.50
2023-03-23T20:32:23.888Z,8.80
2023-03-23T20:34:50.431Z,8.25
2023-03-23T20:37:20.734Z,7.50
2023-03-23T20:39:48.715Z,5.85
2023-03-23T20:42:15.814Z,7.03
2023-03-23T20:44:42.910Z,7.05
2023-03-23T20:47:09.848Z,8.43
2023-03-23T20:49:37.886Z,6.10
2023-03-23T20:52:06.164Z,7.55
2023-03-23T20:54:32.847Z,9.93
2023-03-23T20:56:59.720Z,7.88
2023-03-23T20:59:26.608Z,8.32
2023-03-23T21:01:53.095Z,6.82
2023-03-23T21:04:23.128Z,9.30
2023-03-23T21:06:49.730Z,7.43
2023-03-23T21:09:17.305Z,6.57
2023-03-23T21:11:44.936Z,6.63
2023-03-23T21:14:11.775Z,7.78
2023-03-23T21:16:39.005Z,6.28
2023-03-23T21:19:06.012Z,7.20
2023-03-23T21:21:34.217Z,7.07
2023-03-23T21:24:01.112Z,7.30
2023-03-23T21:26:29.361Z,7.13
2023-03-23T21:28:59.763Z,5.65
2023-03-23T21:31:30.509Z,4.18
2023-03-23T21:33:58.094Z,3.38
2023-03-23T21:36:25.510Z,4.47
2023-03-23T21:38:52.854Z,4.55
2023-03-23T21:41:19.422Z,4.38
2023-03-23T21:43:46.915Z,5.85
2023-03-23T21:46:18.045Z,6.43
2023-03-23T21:48:51.261Z,4.18
2023-03-23T21:51:28.824Z,3.58
2023-03-23T21:53:56.254Z,4.88
2023-03-23T21:56:24.902Z,4.28
2023-03-23T21:58:51.675Z,4.10
2023-03-23T22:01:19.216Z,5.30
2023-03-23T22:03:45.876Z,3.08
2023-03-23T22:06:23.260Z,2.80
2023-03-23T22:08:50.083Z,2.00
2023-03-23T22:11:23.046Z,2.30
2023-03-23T22:13:50.366Z,2.30
2023-03-23T22:16:18.319Z,5.20
2023-03-23T22:18:46.305Z,2.17
2023-03-23T22:21:14.084Z,2.05
2023-03-23T22:23:41.126Z,2.38
2023-03-23T22:26:08.541Z,2.15
2023-03-23T22:28:37.113Z,2.47
2023-03-23T22:31:11.852Z,2.42
2023-03-23T22:33:38.667Z,2.58
2023-03-23T22:36:06.670Z,2.60
2023-03-23T22:38:34.789Z,4.25
2023-03-23T22:41:06.947Z,2.40
2023-03-23T22:43:37.008Z,3.17
2023-03-23T22:46:04.655Z,2.85
2023-03-23T22:48:31.604Z,3.58
2023-03-23T22:50:58.527Z,3.65
2023-03-23T22:53:25.930Z,3.22
2023-03-23T22:55:54.873Z,2.60
2023-03-23T22:58:21.808Z,5.53
2023-03-23T23:00:50.120Z,4.30
2023-03-23T23:03:17.262Z,2.95
2023-03-23T23:05:46.441Z,2.60
2023-03-23T23:08:14.628Z,2.25
2023-03-23T23:10:44.656Z,3.20
2023-03-23T23:13:12.852Z,2.70
2023-03-23T23:15:47.113Z,3.70
2023-03-23T23:18:13.874Z,2.47
2023-03-23T23:20:41.398Z,2.95
2023-03-23T23:23:08.211Z,3.00
2023-03-23T23:25:35.161Z,3.47
2023-03-23T23:28:03.661Z,4.35
2023-03-23T23:30:30.762Z,4.93
2023-03-23T23:32:58.812Z,3.78
2023-03-23T23:35:25.769Z,4.22
2023-03-23T23:37:52.577Z,3.47
2023-03-23T23:40:19.931Z,4.10
2023-03-23T23:42:49.133Z,3.40
2023-03-23T23:45:16.038Z,3.40
2023-03-23T23:47:42.585Z,4.53
2023-03-23T23:50:11.472Z,4.22
2023-03-23T23:52:38.983Z,2.97
2023-03-23T23:55:07.514Z,3.22
2023-03-23T23:57:34.440Z,4.97
